Time;durP1;ratioP1;P1;durP2;ratioP2;P2;SDS_P1;SDS_P2;PMS_P1;PMS_P2;Temp;Humidity;BMP_temperature;BMP_pressure;BME280_temperature;BME280_humidity;BME280_pressure;Samples;Min_cycle;Max_cycle;Signal;HPM_P1;HPM_P2
2023/02/02 00:01:49;;;;;;;5.55;0.47;;;6.70;99.90;;;;;;5035775;28;20025;-76
2023/02/02 00:04:21;;;;;;;9.40;0.95;;;6.70;99.90;;;;;;5019765;28;20393;-76
2023/02/02 00:06:46;;;;;;;5.47;0.50;;;6.70;99.90;;;;;;5036272;28;20025;-76
2023/02/02 00:09:14;;;;;;;6.53;0.50;;;6.70;99.90;;;;;;5015386;28;20029;-75
2023/02/02 00:11:41;;;;;;;6.93;0.50;;;6.70;99.90;;;;;;5038475;28;20056;-76
2023/02/02 00:14:07;;;;;;;7.95;1.02;;;6.70;99.90;;;;;;5039007;28;20029;-75
2023/02/02 00:16:33;;;;;;;3.63;0.45;;;6.70;99.90;;;;;;5041831;28;20029;-77
2023/02/02 00:19:01;;;;;;;9.05;1.20;;;6.70;99.90;;;;;;5031244;28;20029;-76
2023/02/02 00:21:27;;;;;;;13.20;1.08;;;6.70;99.90;;;;;;5025154;28;20026;-76
2023/02/02 00:23:53;;;;;;;14.93;1.38;;;6.80;99.90;;;;;;5042019;28;20210;-75
2023/02/02 00:26:19;;;;;;;12.10;1.58;;;6.80;99.90;;;;;;5040791;28;20033;-77
2023/02/02 00:28:45;;;;;;;13.90;1.23;;;6.90;99.90;;;;;;5020730;28;20076;-75
2023/02/02 00:31:11;;;;;;;10.93;1.35;;;6.90;99.90;;;;;;5024224;28;20022;-77
2023/02/02 00:33:37;;;;;;;12.77;1.50;;;6.90;99.90;;;;;;5022675;28;20437;-76
2023/02/02 00:36:03;;;;;;;10.68;1.50;;;6.90;99.90;;;;;;5038124;28;20025;-77
2023/02/02 00:38:30;;;;;;;11.02;1.40;;;6.90;99.90;;;;;;5041554;28;20025;-76
2023/02/02 00:40:56;;;;;;;11.30;1.35;;;6.90;99.90;;;;;;5030750;28;20116;-76
2023/02/02 00:43:21;;;;;;;14.38;1.48;;;6.90;99.90;;;;;;5039560;28;20127;-78
2023/02/02 00:45:48;;;;;;;14.27;1.38;;;7.00;99.90;;;;;;5010464;28;20028;-78
2023/02/02 00:48:13;;;;;;;17.92;1.35;;;6.90;99.90;;;;;;5040796;28;20076;-77
2023/02/02 00:50:39;;;;;;;11.10;1.48;;;6.90;99.90;;;;;;5042970;28;20144;-78
2023/02/02 00:53:05;;;;;;;12.43;1.50;;;6.90;99.90;;;;;;5028048;28;20040;-76
2023/02/02 00:55:31;;;;;;;13.65;1.13;;;6.90;99.90;;;;;;5037671;28;20163;-77
2023/02/02 00:57:56;;;;;;;12.65;1.40;;;6.90;99.90;;;;;;5053973;28;20497;-79
2023/02/02 01:00:25;;;;;;;9.65;1.40;;;6.90;99.90;;;;;;5029739;28;20459;-76
2023/02/02 01:02:53;;;;;;;15.38;1.27;;;6.90;99.90;;;;;;5037785;28;20033;-75
2023/02/02 01:05:19;;;;;;;22.13;2.20;;;6.90;99.90;;;;;;5041240;28;20581;-75
2023/02/02 01:07:46;;;;;;;14.27;1.27;;;6.90;99.90;;;;;;5006917;28;20078;-76
2023/02/02 01:10:17;;;;;;;17.90;1.95;;;6.90;99.90;;;;;;5040696;28;20067;-77
2023/02/02 01:12:43;;;;;;;13.53;1.00;;;6.90;99.90;;;;;;5039284;28;20310;-76
2023/02/02 01:15:10;;;;;;;15.65;1.52;;;6.90;99.90;;;;;;5020212;28;20284;-76
2023/02/02 01:17:37;;;;;;;20.98;1.75;;;6.90;99.90;;;;;;5041013;28;20380;-77
2023/02/02 01:20:04;;;;;;;14.05;1.52;;;6.90;99.90;;;;;;5027438;28;20030;-75
2023/02/02 01:22:29;;;;;;;12.77;1.45;;;6.90;99.90;;;;;;5029470;28;20389;-76
2023/02/02 01:24:55;;;;;;;13.90;1.50;;;6.90;99.90;;;;;;5011976;28;20112;-76
2023/02/02 01:27:21;;;;;;;17.38;1.38;;;6.90;99.90;;;;;;5030144;28;20034;-76
2023/02/02 01:29:47;;;;;;;23.10;2.72;;;6.90;99.90;;;;;;5039184;28;20056;-76
2023/02/02 01:32:12;;;;;;;15.48;1.75;;;6.90;99.90;;;;;;5040419;28;20029;-79
2023/02/02 01:34:42;;;;;;;17.45;1.50;;;7.00;99.90;;;;;;5055067;28;20433;-76
2023/02/02 01:37:10;;;;;;;20.55;2.60;;;6.90;99.90;;;;;;5029764;28;20052;-77
2023/02/02 01:39:36;;;;;;;15.80;1.95;;;6.90;99.90;;;;;;5036963;28;20381;-77
2023/02/02 01:42:09;;;;;;;17.67;1.55;;;7.00;99.90;;;;;;5020992;28;20040;-74
2023/02/02 01:45:06;;;;;;;17.13;2.35;;;7.00;99.90;;;;;;5008926;28;20409;-75
2023/02/02 01:47:43;;;;;;;14.55;1.58;;;7.00;99.90;;;;;;5048260;28;20485;-77
2023/02/02 01:50:12;;;;;;;11.10;1.10;;;7.00;99.90;;;;;;5038542;28;20048;-77
2023/02/02 01:52:38;;;;;;;12.10;1.10;;;7.00;99.90;;;;;;5054579;28;20393;-75
2023/02/02 01:55:09;;;;;;;10.32;0.90;;;7.00;99.90;;;;;;5024866;28;20091;-81
2023/02/02 01:57:39;;;;;;;7.45;0.80;;;7.00;99.90;;;;;;5028705;28;20033;-75
2023/02/02 02:00:09;;;;;;;8.88;0.80;;;6.90;99.90;;;;;;5026586;28;20060;-76
2023/02/02 02:02:45;;;;;;;14.93;1.25;;;6.90;99.90;;;;;;5038657;28;20126;-78
2023/02/02 02:05:17;;;;;;;11.98;1.52;;;6.90;99.90;;;;;;5013393;28;20025;-78
2023/02/02 02:07:47;;;;;;;14.07;1.65;;;6.90;99.90;;;;;;5014543;28;20040;-76
2023/02/02 02:10:12;;;;;;;8.95;1.13;;;6.80;99.90;;;;;;5024039;28;20075;-77
2023/02/02 02:12:38;;;;;;;12.35;0.90;;;6.80;99.90;;;;;;5027698;28;20064;-74
2023/02/02 02:18:21;;;;;;;13.35;1.58;;;6.80;99.90;;;;;;5023843;28;20040;-78
2023/02/02 02:27:36;;;;;;;14.05;1.50;;;6.70;99.90;;;;;;5037324;28;20033;-79
2023/02/02 02:30:21;;;;;;;11.35;1.15;;;6.70;99.90;;;;;;5035215;28;20432;-75
2023/02/02 02:33:05;;;;;;;22.88;2.08;;;6.70;99.90;;;;;;5005612;28;20021;-76
2023/02/02 02:35:44;;;;;;;11.98;1.20;;;6.60;99.90;;;;;;5025029;28;20030;-75
2023/02/02 02:38:36;;;;;;;15.27;1.58;;;6.60;99.90;;;;;;5007877;28;20091;-76
2023/02/02 02:41:11;;;;;;;12.95;1.02;;;6.60;99.90;;;;;;5018723;28;20040;-76
2023/02/02 02:43:42;;;;;;;10.73;0.82;;;6.50;99.90;;;;;;5026284;28;20052;-75
2023/02/02 02:46:10;;;;;;;11.52;0.93;;;6.50;99.90;;;;;;5036767;28;20034;-76
2023/02/02 02:48:36;;;;;;;6.53;0.60;;;6.40;99.90;;;;;;5037611;28;20500;-76
2023/02/02 02:51:28;;;;;;;7.88;0.73;;;6.40;99.90;;;;;;5036019;28;20116;-75
2023/02/02 02:53:55;;;;;;;5.72;0.65;;;6.40;99.90;;;;;;5018852;28;20028;-77
2023/02/02 02:56:38;;;;;;;4.97;0.65;;;6.40;99.90;;;;;;5019754;28;20426;-76
2023/02/02 02:59:21;;;;;;;7.97;0.40;;;6.40;99.90;;;;;;5035243;28;20501;-76
2023/02/02 03:02:15;;;;;;;7.90;0.50;;;6.30;99.90;;;;;;5036187;28;20013;-75
2023/02/02 03:04:50;;;;;;;2.63;0.30;;;6.40;99.90;;;;;;5003298;28;20025;-76
2023/02/02 03:08:12;;;;;;;6.72;0.45;;;6.30;99.90;;;;;;5055061;28;20044;-76
2023/02/02 03:10:40;;;;;;;5.50;0.40;;;6.30;99.90;;;;;;4989251;28;20069;-76
2023/02/02 03:13:09;;;;;;;6.22;0.50;;;6.30;99.90;;;;;;4989412;28;20058;-76
2023/02/02 03:15:35;;;;;;;6.18;0.50;;;6.30;99.90;;;;;;5005887;28;20046;-76
2023/02/02 03:18:00;;;;;;;2.63;0.40;;;6.30;99.90;;;;;;5006597;28;20053;-76
2023/02/02 03:20:26;;;;;;;6.43;0.50;;;6.30;99.90;;;;;;4988874;28;20036;-76
2023/02/02 03:22:52;;;;;;;6.78;0.60;;;6.30;99.90;;;;;;5005726;28;20120;-75
2023/02/02 03:25:17;;;;;;;9.02;1.10;;;6.30;99.90;;;;;;5005669;28;20026;-77
2023/02/02 03:27:43;;;;;;;5.75;0.95;;;6.30;99.90;;;;;;4989636;28;20053;-81
2023/02/02 03:30:11;;;;;;;8.82;0.90;;;6.30;99.90;;;;;;5004906;28;20033;-75
2023/02/02 03:32:38;;;;;;;6.28;1.20;;;6.30;99.90;;;;;;5005657;28;20123;-76
2023/02/02 03:35:04;;;;;;;5.93;1.40;;;6.30;99.90;;;;;;5005228;28;20060;-76
2023/02/02 03:37:29;;;;;;;9.52;1.35;;;6.30;99.90;;;;;;4989219;28;20042;-75
2023/02/02 03:39:55;;;;;;;9.98;1.48;;;6.30;99.90;;;;;;4973273;28;20071;-75
2023/02/02 03:42:21;;;;;;;13.30;2.00;;;6.30;99.90;;;;;;5031806;28;20102;-78
2023/02/02 03:44:46;;;;;;;15.25;1.83;;;6.30;99.90;;;;;;5038863;28;20033;-76
2023/02/02 03:47:12;;;;;;;9.38;1.25;;;6.30;99.90;;;;;;5038684;28;20021;-78
2023/02/02 03:49:37;;;;;;;13.52;1.80;;;6.30;99.90;;;;;;5020539;28;20044;-81
2023/02/02 03:52:03;;;;;;;8.93;1.20;;;6.40;99.90;;;;;;5005244;28;20493;-80
2023/02/02 03:54:30;;;;;;;9.77;2.03;;;6.30;99.90;;;;;;5023044;28;20031;-79
2023/02/02 03:56:56;;;;;;;15.38;1.40;;;6.40;99.90;;;;;;5020544;28;20354;-77
2023/02/02 03:59:22;;;;;;;12.77;1.45;;;6.40;99.90;;;;;;5051916;28;20552;-76
2023/02/02 04:01:48;;;;;;;12.57;1.35;;;6.30;99.90;;;;;;5036484;28;20092;-81
2023/02/02 04:04:13;;;;;;;11.07;1.58;;;6.40;99.90;;;;;;5027276;28;20021;-78
2023/02/02 04:06:39;;;;;;;10.23;1.23;;;6.40;99.90;;;;;;5021617;28;20033;-78
2023/02/02 04:09:05;;;;;;;10.80;1.30;;;6.40;99.90;;;;;;5028136;28;20080;-76
2023/02/02 04:11:30;;;;;;;12.20;1.35;;;6.40;99.90;;;;;;5053927;28;20044;-75
2023/02/02 04:13:56;;;;;;;12.43;1.45;;;6.40;99.90;;;;;;5037374;28;20028;-76
2023/02/02 04:16:22;;;;;;;16.02;1.73;;;6.50;99.90;;;;;;5036676;28;20036;-77
2023/02/02 04:18:47;;;;;;;12.32;1.50;;;6.50;99.90;;;;;;5051859;28;20043;-75
2023/02/02 04:21:13;;;;;;;12.35;1.50;;;6.50;99.90;;;;;;5020696;28;20042;-76
2023/02/02 04:23:39;;;;;;;10.18;1.35;;;6.50;99.90;;;;;;5019150;28;20096;-77
2023/02/02 04:26:04;;;;;;;10.50;1.58;;;6.50;99.90;;;;;;5052618;28;20029;-76
2023/02/02 04:28:30;;;;;;;17.55;2.28;;;6.50;99.90;;;;;;5038898;28;20112;-75
2023/02/02 04:30:56;;;;;;;11.98;1.40;;;6.50;99.90;;;;;;5028611;28;20025;-73
2023/02/02 04:33:23;;;;;;;17.20;1.48;;;6.60;99.90;;;;;;5035525;28;20150;-74
2023/02/02 04:35:49;;;;;;;19.75;2.08;;;6.60;99.90;;;;;;5018526;28;20017;-76
2023/02/02 04:38:15;;;;;;;17.73;1.83;;;6.70;99.90;;;;;;5021295;28;20040;-78
2023/02/02 04:40:43;;;;;;;17.23;1.60;;;6.70;99.90;;;;;;5019477;28;20100;-76
2023/02/02 04:43:10;;;;;;;19.08;1.85;;;6.80;99.90;;;;;;5026821;28;20033;-74
2023/02/02 04:45:36;;;;;;;15.00;1.48;;;6.80;99.90;;;;;;5017120;28;20060;-75
2023/02/02 04:48:02;;;;;;;14.32;1.92;;;6.90;99.90;;;;;;5037747;28;20087;-75
2023/02/02 04:50:28;;;;;;;17.15;2.47;;;6.90;99.90;;;;;;5002537;28;20406;-75
2023/02/02 04:52:54;;;;;;;16.35;2.25;;;6.90;99.90;;;;;;5035989;28;20025;-77
2023/02/02 04:55:19;;;;;;;17.83;2.63;;;7.00;99.90;;;;;;5040181;28;20883;-74
2023/02/02 04:57:45;;;;;;;22.85;2.40;;;7.00;99.90;;;;;;5028279;28;20040;-76
2023/02/02 05:00:12;;;;;;;20.38;2.17;;;7.00;99.90;;;;;;5030033;28;20033;-74
2023/02/02 05:02:39;;;;;;;23.15;2.80;;;7.00;99.90;;;;;;5028475;28;20064;-75
2023/02/02 05:05:07;;;;;;;15.98;2.10;;;7.00;99.90;;;;;;5021389;28;20033;-76
2023/02/02 05:07:32;;;;;;;16.30;1.90;;;7.10;99.90;;;;;;5040692;28;20109;-76
2023/02/02 05:09:58;;;;;;;12.10;1.63;;;7.10;99.90;;;;;;5014543;28;20457;-76
2023/02/02 05:12:23;;;;;;;16.90;1.90;;;7.10;99.90;;;;;;5047511;28;20172;-74
2023/02/02 05:14:49;;;;;;;17.45;2.03;;;7.10;99.90;;;;;;5037976;28;20036;-75
2023/02/02 05:17:15;;;;;;;18.55;1.63;;;7.10;99.90;;;;;;5041070;28;20037;-76
2023/02/02 05:19:41;;;;;;;17.30;2.15;;;7.10;99.90;;;;;;5021051;28;20508;-77
2023/02/02 05:22:06;;;;;;;17.20;1.55;;;7.20;99.90;;;;;;5041722;28;20036;-76
2023/02/02 05:24:32;;;;;;;22.23;2.30;;;7.10;99.90;;;;;;5024148;28;20033;-74
2023/02/02 05:26:59;;;;;;;17.63;2.30;;;7.20;99.90;;;;;;5023654;28;20033;-76
2023/02/02 05:29:26;;;;;;;13.90;2.30;;;7.20;99.90;;;;;;5007791;28;20083;-78
2023/02/02 05:31:52;;;;;;;14.07;1.40;;;7.20;99.90;;;;;;5040645;28;20076;-76
2023/02/02 05:34:18;;;;;;;20.55;1.80;;;7.10;99.90;;;;;;5038213;28;20367;-75
2023/02/02 05:36:43;;;;;;;13.00;1.60;;;7.20;99.90;;;;;;5026074;28;20090;-75
2023/02/02 05:39:09;;;;;;;16.38;1.23;;;7.20;99.90;;;;;;5038043;28;20029;-75
2023/02/02 05:41:35;;;;;;;16.77;1.33;;;7.20;99.90;;;;;;5039093;28;20025;-75
2023/02/02 05:44:01;;;;;;;14.43;1.60;;;7.30;99.90;;;;;;5030315;28;20075;-76
2023/02/02 05:46:27;;;;;;;16.23;2.38;;;7.30;99.90;;;;;;5030434;28;20433;-76
2023/02/02 05:48:53;;;;;;;15.27;1.67;;;7.30;99.90;;;;;;5028195;28;20062;-77
2023/02/02 05:51:32;;;;;;;17.83;1.70;;;7.20;99.90;;;;;;5015515;28;20088;-77
2023/02/02 05:53:58;;;;;;;18.67;1.27;;;7.30;99.90;;;;;;5001230;28;20129;-78
2023/02/02 05:56:24;;;;;;;16.27;1.95;;;7.30;99.90;;;;;;5022018;28;20124;-76
2023/02/02 05:58:49;;;;;;;15.13;1.33;;;7.30;99.90;;;;;;5007310;28;20041;-77
2023/02/02 06:01:17;;;;;;;11.73;1.30;;;7.30;99.90;;;;;;5025902;28;20053;-74
2023/02/02 06:03:42;;;;;;;12.45;1.38;;;7.20;99.90;;;;;;5024216;28;20041;-77
2023/02/02 06:06:08;;;;;;;11.63;1.55;;;7.30;99.90;;;;;;5025136;28;20037;-75
2023/02/02 06:08:35;;;;;;;17.40;1.40;;;7.30;99.90;;;;;;5023778;28;20044;-77
2023/02/02 06:11:08;;;;;;;15.23;1.63;;;7.30;99.90;;;;;;5022863;28;20029;-77
2023/02/02 06:13:34;;;;;;;17.02;1.83;;;7.30;99.90;;;;;;5006925;28;21979;-76
2023/02/02 06:16:00;;;;;;;19.40;1.70;;;7.30;99.90;;;;;;5023694;28;20113;-75
2023/02/02 06:18:25;;;;;;;12.63;1.48;;;7.30;99.90;;;;;;5021978;28;20045;-75
2023/02/02 06:20:58;;;;;;;12.30;1.35;;;7.40;99.90;;;;;;5024653;28;20319;-76
2023/02/02 06:23:24;;;;;;;11.93;1.40;;;7.40;99.90;;;;;;5025129;28;20025;-76
2023/02/02 06:25:50;;;;;;;13.00;0.88;;;7.30;99.90;;;;;;5023867;28;20437;-76
2023/02/02 06:28:15;;;;;;;17.90;1.52;;;7.30;99.90;;;;;;5023540;28;20029;-76
2023/02/02 06:30:41;;;;;;;21.00;2.75;;;7.30;99.90;;;;;;5046952;28;20414;-76
2023/02/02 06:33:07;;;;;;;13.30;1.75;;;7.30;99.90;;;;;;5015903;28;20041;-75
2023/02/02 06:35:33;;;;;;;13.75;1.38;;;7.30;99.90;;;;;;5023471;28;21898;-75
2023/02/02 06:37:59;;;;;;;14.50;1.55;;;7.30;99.90;;;;;;5015469;28;20038;-76
2023/02/02 06:40:26;;;;;;;16.08;1.88;;;7.30;99.90;;;;;;5038443;28;20053;-76
2023/02/02 06:42:59;;;;;;;15.95;1.70;;;7.30;99.90;;;;;;5013610;28;20112;-76
2023/02/02 06:45:26;;;;;;;11.57;2.08;;;7.30;99.90;;;;;;5017263;28;20084;-75
2023/02/02 06:47:52;;;;;;;10.70;1.20;;;7.30;99.90;;;;;;5022861;28;20045;-77
2023/02/02 06:50:17;;;;;;;18.23;2.15;;;7.30;99.90;;;;;;5017697;28;20034;-75
2023/02/02 06:52:48;;;;;;;11.20;1.10;;;7.30;99.90;;;;;;5018136;28;20109;-75
2023/02/02 06:55:13;;;;;;;12.93;1.23;;;7.30;99.90;;;;;;5027221;28;20034;-76
2023/02/02 06:57:39;;;;;;;16.50;2.10;;;7.20;99.90;;;;;;5024916;28;20057;-75
2023/02/02 07:00:06;;;;;;;13.82;1.85;;;7.20;99.90;;;;;;5017702;28;20052;-75
2023/02/02 07:02:31;;;;;;;15.57;1.95;;;7.30;99.90;;;;;;5029295;28;20382;-75
2023/02/02 07:04:57;;;;;;;14.10;2.38;;;7.30;99.90;;;;;;5018149;28;20018;-74
2023/02/02 07:07:22;;;;;;;14.18;1.33;;;7.30;99.90;;;;;;5017490;28;20026;-76
2023/02/02 07:09:48;;;;;;;18.05;1.73;;;7.20;99.90;;;;;;5016420;28;20027;-74
2023/02/02 07:12:14;;;;;;;14.73;2.30;;;7.20;99.90;;;;;;5020771;28;20121;-74
2023/02/02 07:14:39;;;;;;;12.63;1.65;;;7.20;99.90;;;;;;5018214;28;20057;-75
2023/02/02 07:17:05;;;;;;;12.77;1.77;;;7.20;99.90;;;;;;5017350;28;20033;-74
2023/02/02 07:19:31;;;;;;;14.50;1.55;;;7.20;99.90;;;;;;5020215;28;20029;-74
2023/02/02 07:21:56;;;;;;;13.07;1.60;;;7.20;99.90;;;;;;5024964;28;20052;-75
2023/02/02 07:24:22;;;;;;;15.88;1.60;;;7.20;99.90;;;;;;5017259;28;20028;-75
2023/02/02 07:26:48;;;;;;;16.88;1.88;;;7.20;99.90;;;;;;5017965;28;20029;-75
2023/02/02 07:29:13;;;;;;;14.75;1.52;;;7.20;99.90;;;;;;5014886;28;20033;-75
2023/02/02 07:31:40;;;;;;;12.52;1.35;;;7.20;99.90;;;;;;5018997;28;20387;-75
2023/02/02 07:34:05;;;;;;;19.70;2.28;;;7.20;99.90;;;;;;5020917;28;20034;-75
2023/02/02 07:36:31;;;;;;;14.40;1.42;;;7.20;99.90;;;;;;5007555;28;20018;-76
2023/02/02 07:38:58;;;;;;;13.10;2.10;;;7.20;99.90;;;;;;5045279;28;20132;-75
2023/02/02 07:41:24;;;;;;;14.93;2.42;;;7.20;99.90;;;;;;5006638;28;20030;-75
2023/02/02 07:43:50;;;;;;;13.82;2.08;;;7.20;99.90;;;;;;5022424;28;20029;-75
2023/02/02 07:46:17;;;;;;;14.30;2.00;;;7.20;99.90;;;;;;5014769;28;20025;-75
2023/02/02 07:48:42;;;;;;;11.73;1.58;;;7.20;99.90;;;;;;5018543;28;20045;-77
2023/02/02 07:51:12;;;;;;;14.15;1.13;;;7.20;99.90;;;;;;5013176;28;20390;-74
2023/02/02 07:53:38;;;;;;;16.80;1.35;;;7.20;99.90;;;;;;5025722;28;20394;-75
2023/02/02 07:56:09;;;;;;;18.63;2.53;;;7.20;99.90;;;;;;5038149;28;20032;-75
2023/02/02 07:58:35;;;;;;;18.80;2.25;;;7.20;99.90;;;;;;5041023;28;20026;-74
2023/02/02 08:01:05;;;;;;;14.98;2.33;;;7.20;99.90;;;;;;5017179;28;20423;-76
2023/02/02 08:03:31;;;;;;;11.73;1.92;;;7.20;99.90;;;;;;5016318;28;20076;-75
2023/02/02 08:05:58;;;;;;;11.25;1.73;;;7.20;99.90;;;;;;5015696;28;20026;-77
2023/02/02 08:08:24;;;;;;;10.02;1.73;;;7.20;99.90;;;;;;5014995;28;20022;-74
2023/02/02 08:10:51;;;;;;;14.82;2.20;;;7.20;99.90;;;;;;5047354;28;20401;-75
2023/02/02 08:13:17;;;;;;;11.05;1.73;;;7.20;99.90;;;;;;5018807;28;20026;-76
2023/02/02 08:15:43;;;;;;;17.20;1.83;;;7.20;99.90;;;;;;5015038;28;20049;-77
2023/02/02 08:18:08;;;;;;;10.85;1.70;;;7.20;99.90;;;;;;5015056;28;20484;-77
2023/02/02 08:20:34;;;;;;;10.55;1.90;;;7.20;99.90;;;;;;5017207;28;20475;-73
2023/02/02 08:23:00;;;;;;;16.50;2.30;;;7.20;99.90;;;;;;5015643;28;20057;-77
2023/02/02 08:25:25;;;;;;;16.08;2.50;;;7.20;99.90;;;;;;5024031;28;20025;-74
2023/02/02 08:28:00;;;;;;;14.70;2.53;;;7.20;99.90;;;;;;5016890;28;20032;-74
2023/02/02 08:30:26;;;;;;;12.73;2.00;;;7.20;99.90;;;;;;5028428;28;20109;-76
2023/02/02 08:32:51;;;;;;;13.93;2.42;;;7.20;99.90;;;;;;5023982;28;20053;-77
2023/02/02 08:35:18;;;;;;;12.38;2.15;;;7.10;99.90;;;;;;5028392;28;20028;-74
2023/02/02 08:37:49;;;;;;;16.25;2.35;;;7.20;99.90;;;;;;5022842;28;20042;-75
2023/02/02 08:40:15;;;;;;;15.07;2.85;;;7.10;99.90;;;;;;5018496;28;20033;-73
2023/02/02 08:42:42;;;;;;;15.32;2.75;;;7.20;99.90;;;;;;5024230;28;20087;-75
2023/02/02 08:45:08;;;;;;;13.20;2.10;;;7.10;99.90;;;;;;5020931;28;20075;-77
2023/02/02 08:47:34;;;;;;;17.70;3.40;;;7.20;99.90;;;;;;5051737;28;20026;-76
2023/02/02 08:50:00;;;;;;;15.93;2.63;;;7.20;99.90;;;;;;5049065;28;20072;-75
2023/02/02 08:52:25;;;;;;;15.20;2.83;;;7.20;99.90;;;;;;5018065;28;20033;-75
2023/02/02 08:54:51;;;;;;;20.77;3.92;;;7.30;99.90;;;;;;5022674;28;20489;-74
2023/02/02 08:57:16;;;;;;;18.55;3.20;;;7.20;99.90;;;;;;5020286;28;20393;-75
2023/02/02 08:59:42;;;;;;;13.63;2.88;;;7.20;99.90;;;;;;5050969;28;20044;-75
2023/02/02 09:02:12;;;;;;;13.43;3.28;;;7.30;99.90;;;;;;5027792;28;20108;-76
2023/02/02 09:04:39;;;;;;;19.30;3.22;;;7.30;99.90;;;;;;5026157;28;20022;-76
2023/02/02 09:07:05;;;;;;;14.10;2.67;;;7.30;99.90;;;;;;5018636;28;20034;-74
2023/02/02 09:09:31;;;;;;;16.98;2.33;;;7.30;99.90;;;;;;5002799;28;20033;-74
2023/02/02 09:11:57;;;;;;;13.65;2.88;;;7.40;99.90;;;;;;5043356;28;20033;-74
2023/02/02 09:14:22;;;;;;;11.77;2.90;;;7.40;99.90;;;;;;5034167;28;20022;-76
2023/02/02 09:16:48;;;;;;;19.83;2.85;;;7.40;99.90;;;;;;5017565;28;20125;-75
2023/02/02 09:19:14;;;;;;;16.15;2.95;;;7.50;99.90;;;;;;5027658;28;20360;-73
2023/02/02 09:21:39;;;;;;;16.38;2.35;;;7.50;99.90;;;;;;5018444;28;20032;-74
2023/02/02 09:24:09;;;;;;;15.40;2.42;;;7.50;99.90;;;;;;5017643;28;20494;-74
2023/02/02 09:26:35;;;;;;;17.70;2.13;;;7.50;99.90;;;;;;5022961;28;20509;-74
2023/02/02 09:29:03;;;;;;;14.15;3.05;;;7.50;99.90;;;;;;5043663;28;20030;-74
2023/02/02 09:31:34;;;;;;;15.27;2.20;;;7.60;99.90;;;;;;5018482;28;20030;-73
2023/02/02 09:34:04;;;;;;;16.65;2.92;;;7.60;99.90;;;;;;5003722;28;20031;-73
2023/02/02 09:36:31;;;;;;;13.32;2.88;;;7.70;99.90;;;;;;5024346;28;20052;-74
2023/02/02 09:38:57;;;;;;;11.13;2.38;;;7.70;99.90;;;;;;5047245;28;20033;-75
2023/02/02 09:41:37;;;;;;;18.02;2.72;;;7.70;99.90;;;;;;5018072;28;20018;-74
2023/02/02 09:44:40;;;;;;;10.75;1.83;;;7.70;99.90;;;;;;5019091;28;20029;-76
2023/02/02 09:47:30;;;;;;;11.98;2.55;;;7.70;99.90;;;;;;5018074;28;20030;-75
2023/02/02 09:50:17;;;;;;;;;;;7.70;99.90;;;;;;5022735;28;20141;-74
2023/02/02 09:52:45;;;;;;;16.23;2.53;;;7.70;99.90;;;;;;5016961;28;19914;-76
2023/02/02 09:55:21;;;;;;;11.60;1.70;;;7.80;99.90;;;;;;5001168;28;20034;-77
2023/02/02 09:58:05;;;;;;;14.93;2.25;;;7.80;99.90;;;;;;5016888;28;20038;-76
2023/02/02 10:00:34;;;;;;;12.13;2.72;;;7.80;99.90;;;;;;5027200;28;20061;-75
2023/02/02 10:03:12;;;;;;;17.80;2.97;;;7.80;99.90;;;;;;5024454;28;20414;-75
2023/02/02 10:06:01;;;;;;;16.60;2.28;;;7.80;99.90;;;;;;5019908;28;20029;-75
2023/02/02 10:08:35;;;;;;;10.00;1.90;;;7.90;99.90;;;;;;5033195;28;20044;-75
2023/02/02 10:11:20;;;;;;;17.75;1.83;;;7.90;99.90;;;;;;5016592;28;20030;-76
2023/02/02 10:13:47;;;;;;;17.88;2.55;;;7.90;99.90;;;;;;5018187;28;20021;-80
2023/02/02 10:16:20;;;;;;;13.98;2.25;;;8.00;99.90;;;;;;5017195;28;20189;-75
2023/02/02 10:18:58;;;;;;;10.38;1.67;;;7.90;99.90;;;;;;5017727;28;20411;-74
2023/02/02 10:21:31;;;;;;;19.45;2.80;;;8.00;99.90;;;;;;5015771;28;20303;-78
2023/02/02 10:23:57;;;;;;;11.73;1.98;;;8.00;99.90;;;;;;5018840;28;20059;-77
2023/02/02 10:26:44;;;;;;;13.18;1.40;;;8.00;99.90;;;;;;5003893;28;20112;-76
2023/02/02 10:29:24;;;;;;;12.10;1.45;;;8.10;99.90;;;;;;5019175;28;20038;-76
2023/02/02 10:32:24;;;;;;;15.43;2.50;;;8.10;99.90;;;;;;5019012;28;20033;-76
2023/02/02 10:35:03;;;;;;;15.93;2.05;;;8.20;99.90;;;;;;4986593;28;20056;-75
2023/02/02 10:37:39;;;;;;;11.35;1.60;;;8.20;99.90;;;;;;5016398;28;20056;-77
2023/02/02 10:40:16;;;;;;;13.45;1.75;;;8.20;99.90;;;;;;5008790;28;20025;-76
2023/02/02 10:43:44;;;;;;;13.38;1.55;;;8.20;99.90;;;;;;5014233;28;20026;-74
2023/02/02 10:45:34;;;;;;;13.75;1.50;;;8.10;99.90;;;;;;5016605;28;20045;-74
2023/02/02 10:48:00;;;;;;;15.27;1.70;;;8.10;99.90;;;;;;5025199;28;20030;-73
2023/02/02 10:50:26;;;;;;;12.20;1.30;;;8.10;99.90;;;;;;5019212;28;20088;-75
2023/02/02 10:52:58;;;;;;;10.93;1.30;;;8.10;99.90;;;;;;5050882;28;20033;-78
2023/02/02 10:55:35;;;;;;;12.48;1.38;;;8.10;99.90;;;;;;5017482;28;20471;-75
2023/02/02 10:58:10;;;;;;;8.15;1.40;;;8.10;99.90;;;;;;5033224;28;20064;-74
2023/02/02 11:00:47;;;;;;;10.60;1.13;;;8.10;99.90;;;;;;5019017;28;20049;-78
2023/02/02 11:03:15;;;;;;;15.77;1.52;;;8.10;99.90;;;;;;5016375;28;20475;-78
2023/02/02 11:08:34;;;;;;;15.27;1.08;;;8.10;99.90;;;;;;5017080;28;20042;-75
2023/02/02 11:11:23;;;;;;;13.32;1.02;;;8.10;99.90;;;;;;5035407;28;20025;-76
2023/02/02 11:13:58;;;;;;;12.57;1.05;;;8.20;99.90;;;;;;5008629;28;20061;-77
2023/02/02 11:16:29;;;;;;;11.20;1.25;;;8.20;99.90;;;;;;5005383;28;20025;-75
2023/02/02 11:18:55;;;;;;;13.57;1.83;;;8.20;99.90;;;;;;5025240;28;20037;-75
2023/02/02 11:21:32;;;;;;;10.73;1.35;;;8.20;99.90;;;;;;5019539;28;20022;-75
2023/02/02 11:24:00;;;;;;;8.93;1.25;;;8.20;99.90;;;;;;5023407;28;20018;-75
2023/02/02 11:26:38;;;;;;;10.48;1.25;;;8.20;99.90;;;;;;5016436;28;20053;-74
2023/02/02 11:29:04;;;;;;;16.23;1.42;;;8.20;99.90;;;;;;5031311;28;20605;-74
2023/02/02 11:31:31;;;;;;;13.00;1.75;;;8.20;99.90;;;;;;5016184;28;20119;-73
2023/02/02 11:34:24;;;;;;;10.70;1.40;;;8.10;99.90;;;;;;5018954;28;20051;-75
2023/02/02 11:36:59;;;;;;;9.73;1.20;;;8.10;99.90;;;;;;5051449;28;20087;-76
2023/02/02 11:39:25;;;;;;;6.70;1.15;;;8.10;99.90;;;;;;5016518;28;20022;-74
2023/02/02 11:42:14;;;;;;;12.00;1.63;;;8.10;99.90;;;;;;5016086;28;20104;-73
2023/02/02 11:44:45;;;;;;;13.27;1.52;;;8.10;99.90;;;;;;5024421;28;20028;-72
2023/02/02 11:47:25;;;;;;;12.82;1.40;;;8.00;99.90;;;;;;5021677;28;20080;-74
2023/02/02 11:49:52;;;;;;;;;;;8.10;99.90;;;;;;5004901;28;20045;-73
2023/02/02 11:52:21;;;;;;;12.85;1.50;;;8.10;99.90;;;;;;5008459;28;19978;-74
2023/02/02 11:54:50;;;;;;;11.30;1.33;;;8.10;99.90;;;;;;5015356;28;20036;-75
2023/02/02 11:57:22;;;;;;;12.52;1.67;;;8.00;99.90;;;;;;5047175;28;20470;-75
2023/02/02 11:59:50;;;;;;;9.32;1.60;;;8.00;99.90;;;;;;5002154;28;20109;-74
2023/02/02 12:02:18;;;;;;;14.27;1.90;;;8.00;99.90;;;;;;5031339;28;20030;-75
2023/02/02 12:04:47;;;;;;;13.43;1.45;;;8.00;99.90;;;;;;5028709;28;20167;-74
2023/02/02 12:07:24;;;;;;;14.88;2.45;;;8.00;99.90;;;;;;5022150;28;20339;-76
2023/02/02 12:09:50;;;;;;;9.38;1.48;;;8.10;99.90;;;;;;5018466;28;20041;-75
2023/02/02 12:12:42;;;;;;;11.35;1.63;;;8.10;99.90;;;;;;5057703;28;20436;-75
2023/02/02 12:15:23;;;;;;;11.00;1.42;;;8.10;99.90;;;;;;4950483;28;20432;-74
2023/02/02 12:17:56;;;;;;;11.52;1.08;;;8.10;99.90;;;;;;4965489;28;20190;-76
2023/02/02 12:20:43;;;;;;;11.40;0.73;;;8.10;99.90;;;;;;4953575;28;20039;-75
2023/02/02 12:23:31;;;;;;;8.13;0.88;;;8.10;99.90;;;;;;4950001;28;20085;-75
2023/02/02 12:26:11;;;;;;;5.57;1.08;;;8.10;99.90;;;;;;4988443;28;20512;-75
2023/02/02 12:28:43;;;;;;;12.25;1.52;;;8.10;99.90;;;;;;4988361;28;20023;-75
2023/02/02 12:31:29;;;;;;;11.82;1.55;;;8.10;99.90;;;;;;4954497;28;20046;-75
2023/02/02 12:34:03;;;;;;;12.88;1.40;;;8.10;99.90;;;;;;4971353;28;20145;-75
2023/02/02 12:37:16;;;;;;;12.73;1.80;;;8.10;99.90;;;;;;4955161;28;20037;-76
2023/02/02 12:40:19;;;;;;;9.73;1.88;;;8.10;99.90;;;;;;4913801;29;20400;-74
2023/02/02 12:43:04;;;;;;;16.25;2.13;;;8.10;99.90;;;;;;4933107;29;20540;-76
2023/02/02 12:46:07;;;;;;;17.55;1.65;;;8.10;99.90;;;;;;4933147;29;20032;-77
2023/02/02 12:48:39;;;;;;;11.60;1.25;;;8.10;99.90;;;;;;4913716;29;20224;-75
2023/02/02 12:51:07;;;;;;;14.57;1.85;;;8.10;99.90;;;;;;4933955;28;20086;-74
2023/02/02 12:53:42;;;;;;;10.00;1.50;;;8.10;99.90;;;;;;4952733;28;20082;-75
2023/02/02 12:56:41;;;;;;;9.82;1.35;;;8.00;99.90;;;;;;4926637;29;20600;-74
2023/02/02 12:59:42;;;;;;;14.43;1.30;;;8.00;99.90;;;;;;4948935;29;20059;-75
2023/02/02 13:02:17;;;;;;;11.85;1.10;;;8.00;99.90;;;;;;4933927;29;20043;-74
2023/02/02 13:05:11;;;;;;;11.60;1.13;;;8.00;99.90;;;;;;4951953;28;20500;-73
2023/02/02 13:07:51;;;;;;;12.60;1.63;;;7.90;99.90;;;;;;4951857;29;20035;-74
2023/02/02 13:10:26;;;;;;;16.77;1.55;;;7.90;99.90;;;;;;4975445;28;20042;-75
2023/02/02 13:13:17;;;;;;;12.18;1.42;;;7.80;99.90;;;;;;5027280;28;20531;-73
2023/02/02 13:15:51;;;;;;;15.30;1.92;;;7.80;99.90;;;;;;5005073;28;20022;-75
2023/02/02 13:18:24;;;;;;;16.00;1.80;;;7.80;99.90;;;;;;5048083;28;20103;-75